LXJ5323 SBFL-SBCG
Flight info
| Callsign | LXJ5323 |
|---|---|
| Flight time | N/A |
| Altitude | 43000 |
| Route | ENSUG UZ63 FIGOS |
| Aircraft | HDJT/L-SABDGRWY/H |
Departure
| Time | 2026-04-08 12:33 |
|---|---|
| Airport | Hercílio Luz International Airport (SBFL) |
Arrival
| Time | N/A |
|---|---|
| Airport | Campo Grande Airport (SBCG) |
| Time | Latitude | Longitude | Altitude | Speed | Heading |
|---|---|---|---|---|---|
| 2026-04-08 12:23 | -27.66418 | -48.54778 | 29 ft | 0 kts | 4° |
| 2026-04-08 12:27 | -27.66414 | -48.54774 | 29 ft | 1 kts | 82° |
| 2026-04-08 12:27 | -27.66416 | -48.54770 | 29 ft | 1 kts | 143° |
| 2026-04-08 12:27 | -27.66452 | -48.54753 | 29 ft | 11 kts | 159° |
| 2026-04-08 12:28 | -27.66550 | -48.54735 | 31 ft | 17 kts | 206° |
| 2026-04-08 12:28 | -27.66654 | -48.54803 | 32 ft | 18 kts | 210° |
| 2026-04-08 12:28 | -27.66757 | -48.54778 | 31 ft | 19 kts | 117° |
| 2026-04-08 12:28 | -27.66833 | -48.54645 | 32 ft | 21 kts | 119° |
| 2026-04-08 12:29 | -27.66910 | -48.54493 | 32 ft | 25 kts | 121° |
| 2026-04-08 12:29 | -27.67010 | -48.54309 | 31 ft | 28 kts | 121° |
| 2026-04-08 12:29 | -27.67110 | -48.54120 | 28 ft | 28 kts | 122° |
| 2026-04-08 12:29 | -27.67212 | -48.53935 | 26 ft | 28 kts | 122° |
| 2026-04-08 12:30 | -27.67312 | -48.53750 | 24 ft | 27 kts | 121° |
| 2026-04-08 12:30 | -27.67407 | -48.53570 | 24 ft | 26 kts | 121° |
| 2026-04-08 12:30 | -27.67497 | -48.53400 | 26 ft | 25 kts | 121° |
| 2026-04-08 12:30 | -27.67585 | -48.53237 | 26 ft | 24 kts | 121° |
| 2026-04-08 12:31 | -27.67686 | -48.53091 | 25 ft | 22 kts | 130° |
| 2026-04-08 12:31 | -27.67688 | -48.53066 | 23 ft | 1 kts | 8° |
| 2026-04-08 12:31 | -27.67667 | -48.53084 | 24 ft | 6 kts | 296° |
| 2026-04-08 12:31 | -27.67656 | -48.53107 | 24 ft | 0 kts | 302° |
| 2026-04-08 12:32 | -27.67655 | -48.53109 | 24 ft | 3 kts | 302° |
| 2026-04-08 12:32 | -27.67521 | -48.53358 | 26 ft | 76 kts | 301° |
| 2026-04-08 12:32 | -27.67130 | -48.54086 | 83 ft | 128 kts | 301° |
| 2026-04-08 12:32 | -27.66652 | -48.54971 | 489 ft | 135 kts | 302° |
| 2026-04-08 12:33 | -27.66135 | -48.55940 | 779 ft | 155 kts | 301° |
| 2026-04-08 12:33 | -27.65556 | -48.57030 | 1231 ft | 163 kts | 301° |
| 2026-04-08 12:33 | -27.64969 | -48.58129 | 1848 ft | 164 kts | 301° |
| 2026-04-08 12:33 | -27.64277 | -48.59132 | 2484 ft | 161 kts | 326° |
| 2026-04-08 12:34 | -27.63227 | -48.59491 | 3218 ft | 161 kts | 353° |
| 2026-04-08 12:34 | -27.62126 | -48.59098 | 3835 ft | 175 kts | 22° |
| 2026-04-08 12:34 | -27.61096 | -48.58364 | 4468 ft | 177 kts | 22° |
| 2026-04-08 12:34 | -27.60014 | -48.57631 | 4958 ft | 184 kts | 23° |
| 2026-04-08 12:35 | -27.58921 | -48.56865 | 5570 ft | 185 kts | 22° |
| 2026-04-08 12:35 | -27.57821 | -48.56102 | 6190 ft | 186 kts | 21° |
| 2026-04-08 12:35 | -27.56715 | -48.55338 | 6794 ft | 187 kts | 21° |
| 2026-04-08 12:35 | -27.55594 | -48.54564 | 7390 ft | 191 kts | 21° |
| 2026-04-08 12:36 | -27.54459 | -48.53777 | 8003 ft | 192 kts | 21° |
| 2026-04-08 12:36 | -27.53320 | -48.52989 | 8614 ft | 194 kts | 20° |
| 2026-04-08 12:36 | -27.52161 | -48.52190 | 9208 ft | 196 kts | 21° |
| 2026-04-08 12:36 | -27.50991 | -48.51380 | 9840 ft | 198 kts | 21° |
| 2026-04-08 12:37 | -27.49820 | -48.50568 | 10495 ft | 197 kts | 21° |
| 2026-04-08 12:37 | -27.48605 | -48.49929 | 11150 ft | 188 kts | 5° |
| 2026-04-08 12:37 | -27.47348 | -48.49692 | 11805 ft | 179 kts | 352° |
| 2026-04-08 12:37 | -27.46131 | -48.49800 | 12458 ft | 173 kts | 341° |
| 2026-04-08 12:38 | -27.44937 | -48.50041 | 13041 ft | 176 kts | 343° |
| 2026-04-08 12:38 | -27.43717 | -48.50267 | 13613 ft | 179 kts | 342° |
| 2026-04-08 12:38 | -27.42499 | -48.50500 | 14179 ft | 181 kts | 342° |
| 2026-04-08 12:38 | -27.41247 | -48.50740 | 14745 ft | 184 kts | 342° |
| 2026-04-08 12:39 | -27.39976 | -48.50985 | 15314 ft | 187 kts | 342° |
| 2026-04-08 12:39 | -27.38685 | -48.51232 | 15867 ft | 190 kts | 342° |
| 2026-04-08 12:39 | -27.37374 | -48.51483 | 16431 ft | 192 kts | 342° |
| 2026-04-08 12:39 | -27.36047 | -48.51738 | 16983 ft | 195 kts | 342° |
| 2026-04-08 12:40 | -27.34699 | -48.51996 | 17515 ft | 198 kts | 343° |
| 2026-04-08 12:40 | -27.33325 | -48.52260 | 18048 ft | 202 kts | 343° |
| 2026-04-08 12:40 | -27.31932 | -48.52527 | 18596 ft | 204 kts | 343° |
| 2026-04-08 12:40 | -27.30524 | -48.52796 | 19142 ft | 206 kts | 343° |
| 2026-04-08 12:41 | -27.29100 | -48.53069 | 19689 ft | 208 kts | 343° |
| 2026-04-08 12:41 | -27.27663 | -48.53344 | 20222 ft | 211 kts | 342° |
| 2026-04-08 12:41 | -27.26211 | -48.53623 | 20750 ft | 213 kts | 343° |
| 2026-04-08 12:41 | -27.24742 | -48.53903 | 21316 ft | 213 kts | 342° |
| 2026-04-08 12:42 | -27.23285 | -48.54181 | 21907 ft | 213 kts | 342° |
| 2026-04-08 12:42 | -27.21826 | -48.54460 | 22484 ft | 212 kts | 342° |
| 2026-04-08 12:42 | -27.20372 | -48.54738 | 23045 ft | 212 kts | 342° |
| 2026-04-08 12:42 | -27.18918 | -48.55016 | 23602 ft | 212 kts | 342° |
| 2026-04-08 12:43 | -27.17466 | -48.55293 | 24139 ft | 212 kts | 342° |
| 2026-04-08 12:43 | -27.16020 | -48.55570 | 24678 ft | 211 kts | 342° |
| 2026-04-08 12:43 | -27.14576 | -48.55845 | 25229 ft | 209 kts | 342° |
| 2026-04-08 12:43 | -27.13148 | -48.56118 | 25748 ft | 208 kts | 343° |
| 2026-04-08 12:44 | -27.11732 | -48.56388 | 26275 ft | 205 kts | 343° |
| 2026-04-08 12:44 | -27.10329 | -48.56655 | 26778 ft | 204 kts | 343° |
| 2026-04-08 12:44 | -27.08939 | -48.56921 | 27265 ft | 202 kts | 343° |
| 2026-04-08 12:44 | -27.07560 | -48.57185 | 27727 ft | 200 kts | 343° |
| 2026-04-08 12:45 | -27.06192 | -48.57445 | 28190 ft | 199 kts | 343° |
| 2026-04-08 12:45 | -27.04834 | -48.57704 | 28642 ft | 197 kts | 344° |
| 2026-04-08 12:45 | -27.03489 | -48.57961 | 29069 ft | 195 kts | 344° |
| 2026-04-08 12:45 | -27.02156 | -48.58216 | 29481 ft | 194 kts | 344° |
| 2026-04-08 12:46 | -27.00833 | -48.58468 | 29871 ft | 192 kts | 344° |
| 2026-04-08 12:46 | -26.99536 | -48.58716 | 30240 ft | 190 kts | 344° |
| 2026-04-08 12:46 | -26.98233 | -48.58962 | 30611 ft | 190 kts | 344° |
| 2026-04-08 12:46 | -26.96933 | -48.59209 | 30956 ft | 189 kts | 344° |
| 2026-04-08 12:47 | -26.95637 | -48.59456 | 31289 ft | 189 kts | 344° |
| 2026-04-08 12:47 | -26.94344 | -48.59703 | 31604 ft | 189 kts | 344° |
| 2026-04-08 12:47 | -26.93051 | -48.59949 | 31915 ft | 188 kts | 344° |
| 2026-04-08 12:47 | -26.91761 | -48.60195 | 32215 ft | 188 kts | 344° |
| 2026-04-08 12:48 | -26.90458 | -48.60445 | 32520 ft | 187 kts | 344° |
| 2026-04-08 12:48 | -26.89195 | -48.60683 | 32801 ft | 186 kts | 344° |
| 2026-04-08 12:48 | -26.87900 | -48.60929 | 33067 ft | 187 kts | 345° |
| 2026-04-08 12:48 | -26.86619 | -48.61174 | 33323 ft | 187 kts | 345° |
| 2026-04-08 12:49 | -26.85356 | -48.61413 | 33572 ft | 186 kts | 345° |
| 2026-04-08 12:49 | -26.84076 | -48.61657 | 33825 ft | 186 kts | 345° |
| 2026-04-08 12:49 | -26.82798 | -48.61900 | 34038 ft | 188 kts | 345° |
| 2026-04-08 12:49 | -26.81444 | -48.62163 | 33927 ft | 206 kts | 345° |
| 2026-04-08 12:50 | -26.79978 | -48.62441 | 33888 ft | 221 kts | 346° |
| 2026-04-08 12:50 | -26.78422 | -48.62735 | 33898 ft | 233 kts | 346° |
| 2026-04-08 12:50 | -26.76777 | -48.63046 | 33899 ft | 246 kts | 346° |
| 2026-04-08 12:50 | -26.75047 | -48.63375 | 33891 ft | 258 kts | 346° |
| 2026-04-08 12:51 | -26.73241 | -48.63717 | 33894 ft | 268 kts | 346° |
| 2026-04-08 12:51 | -26.71374 | -48.64070 | 33896 ft | 274 kts | 346° |
| 2026-04-08 12:51 | -26.69527 | -48.64416 | 33997 ft | 259 kts | 346° |
| 2026-04-08 12:51 | -26.67819 | -48.64734 | 34145 ft | 238 kts | 346° |
| 2026-04-08 12:52 | -26.66200 | -48.65044 | 34295 ft | 234 kts | 345° |
| 2026-04-08 12:52 | -26.64605 | -48.65353 | 34517 ft | 236 kts | 346° |
| 2026-04-08 12:52 | -26.62977 | -48.65662 | 34766 ft | 238 kts | 345° |
| 2026-04-08 12:52 | -26.61343 | -48.65994 | 35017 ft | 239 kts | 344° |
| 2026-04-08 12:53 | -26.59708 | -48.66349 | 35266 ft | 240 kts | 344° |
| 2026-04-08 12:53 | -26.58065 | -48.66709 | 35518 ft | 240 kts | 344° |
| 2026-04-08 12:53 | -26.56422 | -48.67068 | 35765 ft | 241 kts | 343° |
| 2026-04-08 12:53 | -26.54775 | -48.67427 | 36017 ft | 241 kts | 343° |
| 2026-04-08 12:54 | -26.53129 | -48.67783 | 36266 ft | 241 kts | 343° |
| 2026-04-08 12:54 | -26.51483 | -48.68142 | 36517 ft | 241 kts | 343° |
| 2026-04-08 12:54 | -26.49842 | -48.68499 | 36768 ft | 240 kts | 343° |
| 2026-04-08 12:54 | -26.48192 | -48.68861 | 36883 ft | 245 kts | 343° |
| 2026-04-08 12:55 | -26.46486 | -48.69244 | 36887 ft | 254 kts | 343° |
| 2026-04-08 12:55 | -26.44726 | -48.69647 | 36960 ft | 260 kts | 343° |
| 2026-04-08 12:55 | -26.42956 | -48.70051 | 37213 ft | 259 kts | 343° |
| 2026-04-08 12:55 | -26.41193 | -48.70452 | 37465 ft | 258 kts | 342° |
| 2026-04-08 12:56 | -26.39439 | -48.70850 | 37716 ft | 257 kts | 342° |
| 2026-04-08 12:56 | -26.37693 | -48.71244 | 37962 ft | 255 kts | 342° |
| 2026-04-08 12:56 | -26.35959 | -48.71635 | 38218 ft | 253 kts | 342° |
| 2026-04-08 12:56 | -26.34236 | -48.72023 | 38467 ft | 252 kts | 342° |
| 2026-04-08 12:57 | -26.32526 | -48.72409 | 38717 ft | 250 kts | 342° |
| 2026-04-08 12:57 | -26.30833 | -48.72790 | 38966 ft | 247 kts | 342° |
| 2026-04-08 12:57 | -26.29158 | -48.73164 | 39214 ft | 244 kts | 342° |
| 2026-04-08 12:57 | -26.27506 | -48.73529 | 39472 ft | 241 kts | 341° |
| 2026-04-08 12:58 | -26.25874 | -48.73884 | 39711 ft | 237 kts | 341° |
| 2026-04-08 12:58 | -26.24268 | -48.74229 | 39955 ft | 233 kts | 341° |
| 2026-04-08 12:58 | -26.22695 | -48.74561 | 40205 ft | 228 kts | 341° |
| 2026-04-08 12:58 | -26.21164 | -48.74901 | 40448 ft | 221 kts | 341° |
| 2026-04-08 12:59 | -26.19622 | -48.75040 | 40523 ft | 229 kts | 349° |
| 2026-04-08 12:59 | -26.18018 | -48.75110 | 40328 ft | 240 kts | 347° |
| 2026-04-08 12:59 | -26.16250 | -48.75211 | 39969 ft | 262 kts | 350° |
| 2026-04-08 12:59 | -26.14407 | -48.75259 | 39994 ft | 268 kts | 351° |
| 2026-04-08 13:00 | -26.12561 | -48.75489 | 40010 ft | 267 kts | 339° |
| 2026-04-08 13:00 | -26.10791 | -48.76119 | 40016 ft | 267 kts | 329° |
| 2026-04-08 13:00 | -26.09156 | -48.77107 | 40025 ft | 269 kts | 322° |
| 2026-04-08 13:00 | -26.07570 | -48.78254 | 40030 ft | 275 kts | 322° |
| 2026-04-08 13:01 | -26.06471 | -48.79028 | 40028 ft | 279 kts | 323° |
| 2026-04-08 13:01 | -26.04273 | -48.80581 | 40033 ft | 286 kts | 323° |
| 2026-04-08 13:01 | -26.03132 | -48.81395 | 40034 ft | 290 kts | 323° |
| 2026-04-08 13:01 | -26.01425 | -48.82614 | 40034 ft | 295 kts | 323° |
| 2026-04-08 13:02 | -25.99686 | -48.83852 | 40044 ft | 299 kts | 323° |
| 2026-04-08 13:02 | -25.97923 | -48.85106 | 40040 ft | 303 kts | 323° |
| 2026-04-08 13:02 | -25.94331 | -48.87657 | 40052 ft | 310 kts | 323° |
| 2026-04-08 13:03 | -25.90647 | -48.90279 | 40065 ft | 319 kts | 323° |
| 2026-04-08 13:03 | -25.86908 | -48.92933 | 40204 ft | 321 kts | 323° |
| 2026-04-08 13:04 | -25.85026 | -48.94269 | 40325 ft | 321 kts | 323° |
| 2026-04-08 13:04 | -25.83149 | -48.95602 | 40458 ft | 320 kts | 322° |
| 2026-04-08 13:04 | -25.81274 | -48.96934 | 40584 ft | 320 kts | 322° |
| 2026-04-08 13:04 | -25.79400 | -48.98263 | 40705 ft | 319 kts | 322° |
| 2026-04-08 13:05 | -25.77530 | -48.99590 | 40831 ft | 319 kts | 322° |
| 2026-04-08 13:05 | -25.75662 | -49.00914 | 40955 ft | 318 kts | 322° |
| 2026-04-08 13:05 | -25.73798 | -49.02234 | 41080 ft | 318 kts | 322° |
| 2026-04-08 13:05 | -25.71935 | -49.03550 | 41203 ft | 317 kts | 322° |
| 2026-04-08 13:06 | -25.70078 | -49.04862 | 41327 ft | 316 kts | 322° |
| 2026-04-08 13:06 | -25.68224 | -49.06172 | 41451 ft | 316 kts | 322° |
| 2026-04-08 13:06 | -25.66372 | -49.07480 | 41579 ft | 315 kts | 322° |
| 2026-04-08 13:06 | -25.64519 | -49.08786 | 41698 ft | 315 kts | 321° |
| 2026-04-08 13:07 | -25.62678 | -49.10084 | 41822 ft | 314 kts | 321° |
| 2026-04-08 13:07 | -25.60843 | -49.11384 | 41944 ft | 313 kts | 321° |
| 2026-04-08 13:07 | -25.59007 | -49.12679 | 42069 ft | 312 kts | 321° |
| 2026-04-08 13:07 | -25.57175 | -49.13965 | 42192 ft | 311 kts | 321° |
| 2026-04-08 13:08 | -25.55352 | -49.15251 | 42317 ft | 310 kts | 321° |
| 2026-04-08 13:08 | -25.53538 | -49.16534 | 42438 ft | 309 kts | 319° |
| 2026-04-08 13:08 | -25.51867 | -49.17982 | 42571 ft | 303 kts | 313° |
| 2026-04-08 13:08 | -25.50250 | -49.19470 | 42690 ft | 302 kts | 314° |
| 2026-04-08 13:09 | -25.48619 | -49.20930 | 42817 ft | 301 kts | 314° |
| 2026-04-08 13:09 | -25.47000 | -49.22390 | 42942 ft | 300 kts | 314° |
| 2026-04-08 13:09 | -25.45391 | -49.23859 | 43041 ft | 300 kts | 313° |
| 2026-04-08 13:09 | -25.43775 | -49.25330 | 43038 ft | 303 kts | 313° |
| 2026-04-08 13:10 | -25.40499 | -49.28297 | 43039 ft | 309 kts | 313° |
| 2026-04-08 13:10 | -25.37136 | -49.31340 | 43041 ft | 315 kts | 314° |
| 2026-04-08 13:11 | -25.33713 | -49.34436 | 43048 ft | 321 kts | 314° |
| 2026-04-08 13:11 | -25.30235 | -49.37575 | 43051 ft | 325 kts | 314° |
| 2026-04-08 13:12 | -25.25509 | -49.41844 | 43052 ft | 331 kts | 314° |